Time;durP1;ratioP1;P1;durP2;ratioP2;P2;SDS_P1;SDS_P2;PMS_P1;PMS_P2;Temp;Humidity;BMP_temperature;BMP_pressure;BME280_temperature;BME280_humidity;BME280_pressure;Samples;Min_cycle;Max_cycle;Signal;HPM_P1;HPM_P2
2022/07/16 00:01:26;;;;;;;8.77;2.83;;;17.30;99.90;;;;;;5099220;28;20378;-71
2022/07/16 00:04:01;;;;;;;9.98;3.03;;;17.30;99.90;;;;;;5099222;28;20110;-71
2022/07/16 00:06:29;;;;;;;8.00;3.03;;;17.40;99.90;;;;;;5098220;28;20044;-71
2022/07/16 00:08:55;;;;;;;4.47;2.70;;;17.40;99.90;;;;;;5098671;28;20046;-71
2022/07/16 00:11:23;;;;;;;5.95;3.22;;;17.40;99.90;;;;;;5099016;28;20109;-72
2022/07/16 00:13:49;;;;;;;5.93;3.03;;;17.40;99.90;;;;;;5097891;28;20415;-72
2022/07/16 00:16:15;;;;;;;8.50;2.95;;;17.50;99.90;;;;;;5132101;27;20357;-71
2022/07/16 00:21:27;;;;;;;6.07;2.60;;;17.60;99.90;;;;;;5098975;28;20097;-71
2022/07/16 00:23:53;;;;;;;6.78;2.92;;;17.50;99.90;;;;;;5098698;28;20440;-72
2022/07/16 00:26:19;;;;;;;8.63;2.95;;;17.50;99.90;;;;;;5098640;28;20044;-71
2022/07/16 00:28:45;;;;;;;5.03;2.78;;;17.50;99.90;;;;;;5097870;28;20048;-71
2022/07/16 00:31:11;;;;;;;5.43;2.20;;;17.40;99.90;;;;;;5098773;28;20314;-72
2022/07/16 00:33:37;;;;;;;5.93;2.80;;;17.50;99.90;;;;;;5097722;28;20127;-71
2022/07/16 00:36:03;;;;;;;8.13;2.40;;;17.60;99.90;;;;;;5098475;28;20036;-72
2022/07/16 00:38:29;;;;;;;6.03;2.50;;;17.70;99.90;;;;;;5098480;28;20035;-71
2022/07/16 00:40:55;;;;;;;5.90;2.35;;;17.60;99.90;;;;;;5098461;28;20451;-71
2022/07/16 00:43:21;;;;;;;8.65;3.05;;;17.70;99.90;;;;;;5098652;28;20320;-71
2022/07/16 00:45:46;;;;;;;6.65;2.80;;;17.80;99.90;;;;;;5097122;28;20463;-71
2022/07/16 00:48:12;;;;;;;10.52;3.60;;;17.80;99.90;;;;;;5080195;28;20067;-72
2022/07/16 00:50:39;;;;;;;12.25;4.80;;;17.60;99.90;;;;;;5080191;28;20040;-71
2022/07/16 00:53:08;;;;;;;10.05;5.68;;;17.20;99.90;;;;;;5098173;28;20039;-71
2022/07/16 00:55:34;;;;;;;11.98;5.97;;;16.90;99.90;;;;;;5098022;28;20044;-71
2022/07/16 00:57:59;;;;;;;12.23;6.10;;;16.90;99.90;;;;;;5097720;28;20057;-71
2022/07/16 01:00:26;;;;;;;9.77;5.68;;;17.00;99.90;;;;;;5097108;28;20078;-71
2022/07/16 01:02:52;;;;;;;6.50;4.50;;;17.20;99.90;;;;;;5097117;28;20106;-71
2022/07/16 01:05:19;;;;;;;9.80;5.20;;;17.40;99.90;;;;;;5096937;28;20093;-71
2022/07/16 01:07:45;;;;;;;8.77;4.07;;;17.50;99.90;;;;;;5096606;28;20043;-71
2022/07/16 01:10:12;;;;;;;5.07;3.47;;;17.50;99.90;;;;;;5098016;28;20044;-71
2022/07/16 01:12:38;;;;;;;5.57;3.80;;;17.50;99.90;;;;;;5097757;28;20338;-71
2022/07/16 01:15:05;;;;;;;6.97;3.25;;;17.60;99.90;;;;;;5096593;28;20046;-71
2022/07/16 01:17:31;;;;;;;4.88;2.85;;;17.60;99.90;;;;;;5097637;28;20048;-71
2022/07/16 01:19:56;;;;;;;5.80;2.88;;;17.70;99.90;;;;;;5096163;28;20452;-71
2022/07/16 01:22:24;;;;;;;4.10;2.25;;;17.60;99.90;;;;;;5096486;28;20043;-71
2022/07/16 01:24:50;;;;;;;4.85;2.47;;;17.60;99.90;;;;;;5097575;28;20318;-71
2022/07/16 01:27:18;;;;;;;5.32;2.10;;;17.70;99.90;;;;;;5097094;28;20068;-71
2022/07/16 01:29:43;;;;;;;4.75;2.38;;;17.80;99.90;;;;;;5096381;28;20044;-71
2022/07/16 01:32:09;;;;;;;6.38;1.95;;;17.80;99.90;;;;;;5097243;28;20393;-72
2022/07/16 01:34:36;;;;;;;3.42;1.15;;;17.80;99.90;;;;;;5096284;28;20048;-72
2022/07/16 01:37:05;;;;;;;5.35;1.98;;;17.80;99.90;;;;;;5096217;28;20036;-72
2022/07/16 01:39:36;;;;;;;3.17;1.50;;;17.90;99.90;;;;;;5097469;28;20043;-72
2022/07/16 01:42:05;;;;;;;4.50;1.70;;;17.90;99.90;;;;;;5097435;28;20325;-71
2022/07/16 01:44:32;;;;;;;6.78;1.92;;;18.00;99.90;;;;;;5096127;28;20044;-71
2022/07/16 01:46:58;;;;;;;5.15;2.20;;;18.00;99.90;;;;;;5095948;28;20429;-72
2022/07/16 01:49:29;;;;;;;5.00;1.70;;;18.00;99.90;;;;;;5095828;28;20040;-72
2022/07/16 01:51:54;;;;;;;8.45;3.00;;;18.10;99.90;;;;;;5096184;28;20119;-71
2022/07/16 01:54:20;;;;;;;5.97;1.80;;;18.10;99.90;;;;;;5097021;28;20111;-71
2022/07/16 01:56:46;;;;;;;5.00;2.83;;;18.00;99.90;;;;;;5095548;28;20121;-72
2022/07/16 01:59:11;;;;;;;5.82;2.38;;;18.10;99.90;;;;;;5097384;28;20047;-72
2022/07/16 02:01:37;;;;;;;9.77;4.20;;;18.10;99.90;;;;;;5095928;28;20122;-72
2022/07/16 02:04:03;;;;;;;10.02;3.72;;;18.10;99.90;;;;;;5095973;28;20067;-72
2022/07/16 02:06:29;;;;;;;10.25;3.70;;;18.00;99.90;;;;;;5096784;28;20453;-72
2022/07/16 02:08:55;;;;;;;7.70;3.38;;;18.00;99.90;;;;;;5096950;28;20043;-72
2022/07/16 02:11:20;;;;;;;8.15;2.92;;;18.00;99.90;;;;;;5095808;28;20050;-72
2022/07/16 02:13:46;;;;;;;6.32;2.88;;;18.00;99.90;;;;;;5096741;28;20042;-72
2022/07/16 02:16:12;;;;;;;11.77;3.53;;;17.90;99.90;;;;;;5096618;28;20040;-72
2022/07/16 02:18:38;;;;;;;7.75;2.90;;;17.90;99.90;;;;;;5096537;28;20044;-72
2022/07/16 02:21:05;;;;;;;4.85;2.42;;;17.80;99.90;;;;;;5097025;28;20123;-72
2022/07/16 02:23:30;;;;;;;5.60;1.92;;;17.70;99.90;;;;;;5095831;28;20122;-72
2022/07/16 02:25:56;;;;;;;7.95;2.30;;;17.90;99.90;;;;;;5096603;28;20068;-71
2022/07/16 02:28:22;;;;;;;6.80;2.38;;;17.90;99.90;;;;;;5094880;28;20056;-71
2022/07/16 02:30:49;;;;;;;8.77;2.35;;;17.80;99.90;;;;;;5098161;28;20044;-72
2022/07/16 02:33:16;;;;;;;10.32;2.25;;;17.70;99.90;;;;;;5085486;28;20482;-71
2022/07/16 02:35:42;;;;;;;7.25;2.30;;;17.60;99.90;;;;;;5103190;28;20442;-72
2022/07/16 02:38:09;;;;;;;5.22;1.63;;;17.50;99.90;;;;;;5102257;28;20051;-71
2022/07/16 02:40:36;;;;;;;6.10;1.92;;;17.40;99.90;;;;;;5103470;28;20092;-71
2022/07/16 02:43:05;;;;;;;7.32;1.80;;;17.30;99.90;;;;;;5103201;28;20044;-72
2022/07/16 02:45:32;;;;;;;10.65;1.70;;;17.20;99.90;;;;;;5103000;28;20115;-71
2022/07/16 02:47:58;;;;;;;10.63;1.90;;;17.20;99.90;;;;;;5102032;28;20036;-71
2022/07/16 02:50:24;;;;;;;7.80;1.63;;;17.20;99.90;;;;;;5103158;28;20314;-71
2022/07/16 02:52:50;;;;;;;4.63;1.63;;;17.20;99.90;;;;;;5103101;28;20085;-71
2022/07/16 02:55:16;;;;;;;6.05;1.80;;;17.20;99.90;;;;;;5102474;28;20048;-71
2022/07/16 02:57:42;;;;;;;5.32;2.10;;;17.30;99.90;;;;;;5102518;28;20110;-71
2022/07/16 03:00:11;;;;;;;6.15;1.90;;;17.30;99.90;;;;;;5102471;28;20351;-71
2022/07/16 03:02:37;;;;;;;5.22;1.83;;;17.30;99.90;;;;;;5103183;28;20079;-71
2022/07/16 03:05:04;;;;;;;5.45;1.33;;;17.30;99.90;;;;;;5102940;28;20101;-71
2022/07/16 03:07:30;;;;;;;8.75;1.98;;;17.30;99.90;;;;;;5102989;28;20032;-71
2022/07/16 03:09:56;;;;;;;7.68;2.10;;;17.30;99.90;;;;;;5102786;28;20325;-71
2022/07/16 03:12:22;;;;;;;8.70;1.92;;;17.20;99.90;;;;;;5101743;28;20044;-71
2022/07/16 03:14:47;;;;;;;8.13;1.65;;;17.20;99.90;;;;;;5101840;28;20075;-71
2022/07/16 03:17:13;;;;;;;10.55;2.30;;;17.20;99.90;;;;;;5101794;28;20040;-71
2022/07/16 03:19:39;;;;;;;6.28;2.03;;;17.20;99.90;;;;;;5101681;28;20228;-71
2022/07/16 03:22:07;;;;;;;5.78;1.80;;;17.10;99.90;;;;;;5103120;28;20326;-71
2022/07/16 03:24:33;;;;;;;6.30;1.65;;;17.10;99.90;;;;;;5102724;28;20428;-71
2022/07/16 03:26:59;;;;;;;2.28;1.20;;;17.10;99.90;;;;;;5102290;28;20062;-72
2022/07/16 03:29:25;;;;;;;4.57;1.17;;;17.00;99.90;;;;;;5102801;28;20447;-71
2022/07/16 03:31:50;;;;;;;5.80;1.40;;;17.00;99.90;;;;;;5101979;28;20129;-71
2022/07/16 03:34:16;;;;;;;3.22;1.38;;;16.90;99.90;;;;;;5102852;28;20424;-71
2022/07/16 03:36:42;;;;;;;5.88;1.80;;;16.90;99.90;;;;;;5102722;28;20032;-71
2022/07/16 03:39:08;;;;;;;5.60;1.45;;;16.90;99.90;;;;;;5102940;28;20036;-71
2022/07/16 03:41:36;;;;;;;5.80;1.65;;;16.80;99.90;;;;;;5102207;28;20435;-71
2022/07/16 03:44:03;;;;;;;4.90;2.00;;;16.70;99.90;;;;;;5099123;28;20032;-71
2022/07/16 03:46:29;;;;;;;5.20;1.75;;;16.70;99.90;;;;;;5099750;28;20044;-71
2022/07/16 03:48:56;;;;;;;7.97;2.40;;;16.70;99.90;;;;;;5099212;28;20440;-71
2022/07/16 03:51:22;;;;;;;8.15;1.90;;;16.60;99.90;;;;;;5099592;28;20054;-71
2022/07/16 03:53:48;;;;;;;9.23;2.45;;;16.60;99.90;;;;;;5098257;28;20039;-71
2022/07/16 03:56:14;;;;;;;4.05;2.28;;;16.60;99.90;;;;;;5099426;28;20072;-71
2022/07/16 03:58:40;;;;;;;8.68;2.22;;;16.70;99.90;;;;;;5098877;28;20067;-71
2022/07/16 04:01:06;;;;;;;8.40;2.53;;;16.60;99.90;;;;;;5099384;28;20135;-71
2022/07/16 04:03:33;;;;;;;10.70;2.80;;;16.60;99.90;;;;;;5098223;28;20333;-71
2022/07/16 04:06:01;;;;;;;9.55;2.72;;;16.60;99.90;;;;;;5099191;28;20040;-71
2022/07/16 04:08:26;;;;;;;7.55;2.53;;;16.50;99.90;;;;;;5097898;28;20048;-71
2022/07/16 04:10:52;;;;;;;8.55;2.75;;;16.30;99.90;;;;;;5098040;28;20100;-71
2022/07/16 04:13:18;;;;;;;7.70;2.40;;;16.20;99.90;;;;;;5098908;28;20036;-71
2022/07/16 04:15:44;;;;;;;10.20;3.55;;;16.20;99.90;;;;;;5098968;28;20036;-71
2022/07/16 04:18:10;;;;;;;12.50;3.28;;;16.10;99.90;;;;;;5081155;28;20040;-71
2022/07/16 04:20:36;;;;;;;9.27;2.90;;;16.00;99.90;;;;;;5097942;28;20332;-71
2022/07/16 04:23:02;;;;;;;10.02;2.90;;;16.00;99.90;;;;;;5098642;28;20421;-71
2022/07/16 04:25:28;;;;;;;11.50;3.38;;;16.00;99.90;;;;;;5097461;28;20417;-71
2022/07/16 04:27:54;;;;;;;7.97;2.67;;;15.90;99.90;;;;;;5096895;28;20048;-71
2022/07/16 04:30:20;;;;;;;6.88;2.45;;;16.00;99.90;;;;;;5097557;28;20040;-71
2022/07/16 04:32:45;;;;;;;7.80;2.42;;;16.00;99.90;;;;;;5098601;28;20062;-71
2022/07/16 04:35:12;;;;;;;5.82;2.40;;;16.00;99.90;;;;;;5098700;28;20043;-71
2022/07/16 04:37:39;;;;;;;6.90;2.30;;;16.10;99.90;;;;;;5097564;28;20032;-72
2022/07/16 04:40:08;;;;;;;12.77;2.70;;;16.10;99.90;;;;;;5098569;28;20040;-72
2022/07/16 04:42:37;;;;;;;12.90;3.10;;;16.20;99.90;;;;;;5097606;28;20040;-71
2022/07/16 04:45:03;;;;;;;6.40;2.53;;;16.30;99.90;;;;;;5097179;28;20121;-72
2022/07/16 04:47:29;;;;;;;13.45;3.00;;;16.30;99.90;;;;;;5098453;28;20055;-72
2022/07/16 04:49:54;;;;;;;7.72;2.10;;;16.40;99.90;;;;;;5097059;28;20031;-72
2022/07/16 04:52:20;;;;;;;7.20;2.25;;;16.50;99.90;;;;;;5097281;28;20417;-72
2022/07/16 04:54:46;;;;;;;8.00;2.30;;;16.50;99.90;;;;;;5095887;28;20047;-72
2022/07/16 04:57:11;;;;;;;7.68;2.20;;;16.50;99.90;;;;;;5096660;28;20051;-71
2022/07/16 04:59:40;;;;;;;5.00;1.85;;;16.60;99.90;;;;;;5098074;28;20036;-71
2022/07/16 05:04:50;;;;;;;7.75;2.05;;;16.70;99.90;;;;;;5096849;28;20132;-73
2022/07/16 05:07:15;;;;;;;8.70;2.28;;;16.60;99.90;;;;;;5097842;28;20072;-72
2022/07/16 05:09:41;;;;;;;14.68;2.65;;;16.80;99.90;;;;;;5096891;28;20048;-71
2022/07/16 05:12:07;;;;;;;6.47;1.92;;;16.80;99.90;;;;;;5096880;28;20409;-72
2022/07/16 05:14:32;;;;;;;5.43;2.25;;;16.80;99.90;;;;;;5097982;28;20123;-72
2022/07/16 05:16:58;;;;;;;8.32;2.08;;;16.80;99.90;;;;;;5096802;28;20036;-72
2022/07/16 05:19:24;;;;;;;7.93;1.80;;;16.80;99.90;;;;;;5097896;28;20043;-71
2022/07/16 05:21:50;;;;;;;9.50;1.50;;;16.80;99.90;;;;;;5096532;28;20344;-72
2022/07/16 05:24:15;;;;;;;9.25;1.90;;;16.90;99.90;;;;;;5096359;28;20044;-71
2022/07/16 05:26:41;;;;;;;5.80;1.52;;;17.00;99.90;;;;;;5096541;28;20048;-72
2022/07/16 05:29:07;;;;;;;11.45;1.20;;;17.00;99.90;;;;;;5130278;27;20448;-71
2022/07/16 05:31:32;;;;;;;4.05;1.20;;;17.10;99.90;;;;;;5096382;28;20112;-71
2022/07/16 05:33:58;;;;;;;7.32;1.50;;;17.20;99.90;;;;;;5097471;28;20036;-71
2022/07/16 05:36:24;;;;;;;6.75;1.20;;;17.20;99.90;;;;;;5130416;27;20036;-71
2022/07/16 05:38:50;;;;;;;9.90;1.20;;;17.10;99.90;;;;;;5097154;28;20046;-71
2022/07/16 05:41:16;;;;;;;8.75;1.20;;;17.10;99.90;;;;;;5097527;28;20114;-72
2022/07/16 05:43:42;;;;;;;10.63;1.08;;;17.10;99.90;;;;;;5097164;28;20148;-71
2022/07/16 05:46:07;;;;;;;6.28;1.13;;;17.20;99.90;;;;;;5097336;28;20464;-71
2022/07/16 05:48:33;;;;;;;5.75;1.20;;;17.20;99.90;;;;;;5097102;28;20364;-71
2022/07/16 05:50:59;;;;;;;3.88;0.95;;;17.10;99.90;;;;;;5096342;28;20325;-72
2022/07/16 05:53:25;;;;;;;7.60;1.50;;;17.20;99.90;;;;;;5097276;28;20032;-71
2022/07/16 05:55:50;;;;;;;5.70;1.00;;;17.30;99.90;;;;;;5097147;28;20032;-71
2022/07/16 05:58:16;;;;;;;8.38;1.25;;;17.50;99.90;;;;;;5096833;28;20074;-71
2022/07/16 06:00:42;;;;;;;5.65;0.85;;;17.50;99.90;;;;;;5095843;28;20065;-71
2022/07/16 06:03:08;;;;;;;7.60;0.82;;;17.60;99.90;;;;;;5095946;28;20051;-72
2022/07/16 06:05:34;;;;;;;4.55;0.82;;;17.50;99.90;;;;;;5096389;28;20063;-71
2022/07/16 06:08:00;;;;;;;8.75;1.10;;;17.20;99.90;;;;;;5096760;28;20115;-71
2022/07/16 06:10:26;;;;;;;8.77;1.40;;;17.00;99.90;;;;;;5095744;28;20051;-71
2022/07/16 06:12:52;;;;;;;8.00;1.30;;;17.10;99.90;;;;;;5096597;28;20032;-71
2022/07/16 06:15:17;;;;;;;6.97;0.93;;;17.10;99.90;;;;;;5095774;28;20031;-72
2022/07/16 06:17:43;;;;;;;6.18;0.70;;;17.20;99.90;;;;;;5096632;28;20078;-71
2022/07/16 06:20:10;;;;;;;6.65;0.88;;;17.10;99.90;;;;;;5095484;28;20075;-72
2022/07/16 06:22:36;;;;;;;7.43;1.02;;;17.30;99.90;;;;;;5078926;28;20044;-72
2022/07/16 06:25:02;;;;;;;8.98;0.90;;;17.40;99.90;;;;;;5096536;28;20036;-72
2022/07/16 06:27:28;;;;;;;4.00;0.70;;;17.50;99.90;;;;;;5096141;28;20052;-72
2022/07/16 06:29:54;;;;;;;7.22;0.73;;;17.50;99.90;;;;;;5096546;28;20043;-72
2022/07/16 06:32:20;;;;;;;10.52;1.13;;;17.30;99.90;;;;;;5095603;28;20048;-72
2022/07/16 06:34:45;;;;;;;3.22;0.60;;;17.50;99.90;;;;;;5096484;28;20036;-71
2022/07/16 06:37:11;;;;;;;8.48;0.82;;;17.70;99.90;;;;;;5096525;28;20032;-72
2022/07/16 06:39:38;;;;;;;4.10;0.70;;;17.50;99.90;;;;;;5096888;28;20047;-72
2022/07/16 06:42:04;;;;;;;8.10;0.90;;;17.40;99.90;;;;;;5095735;28;20044;-72
2022/07/16 06:44:30;;;;;;;6.82;0.80;;;17.70;99.90;;;;;;5096448;28;20123;-72
2022/07/16 06:46:56;;;;;;;4.80;0.50;;;17.70;99.90;;;;;;5078515;28;20043;-72
2022/07/16 06:49:21;;;;;;;5.50;1.20;;;17.60;99.90;;;;;;5096224;28;20097;-71
2022/07/16 06:51:47;;;;;;;7.22;1.13;;;17.70;99.90;;;;;;5096238;28;20033;-72
2022/07/16 06:54:13;;;;;;;9.68;1.08;;;17.50;99.90;;;;;;5096273;28;20036;-71
2022/07/16 06:56:38;;;;;;;8.13;0.85;;;17.60;99.90;;;;;;5096214;28;20028;-71
2022/07/16 06:59:04;;;;;;;6.03;0.82;;;17.50;99.90;;;;;;5096007;28;20036;-71
2022/07/16 07:01:29;;;;;;;6.25;0.65;;;17.30;99.90;;;;;;5096297;28;20089;-70
2022/07/16 07:03:55;;;;;;;8.13;0.70;;;17.30;99.90;;;;;;5096503;28;20321;-68
2022/07/16 07:06:21;;;;;;;4.97;0.52;;;17.30;99.90;;;;;;5095386;28;20036;-69
2022/07/16 07:08:47;;;;;;;6.25;0.85;;;17.30;99.90;;;;;;5096465;28;20036;-69
2022/07/16 07:11:12;;;;;;;5.38;0.85;;;17.40;99.90;;;;;;5096247;28;20349;-69
2022/07/16 07:13:38;;;;;;;3.58;0.70;;;17.40;99.90;;;;;;5096179;28;20380;-69
2022/07/16 07:16:05;;;;;;;7.93;0.60;;;17.70;99.90;;;;;;5096200;28;20028;-69
2022/07/16 07:18:32;;;;;;;4.78;0.60;;;17.60;99.90;;;;;;5098635;28;20087;-69
2022/07/16 07:20:59;;;;;;;4.68;0.60;;;17.90;99.90;;;;;;5099917;28;20044;-69
2022/07/16 07:23:25;;;;;;;5.32;0.55;;;18.20;99.90;;;;;;5099976;28;20055;-68
2022/07/16 07:25:53;;;;;;;4.07;0.90;;;18.20;99.90;;;;;;5092481;28;20364;-69
2022/07/16 07:28:19;;;;;;;3.33;0.40;;;18.30;99.90;;;;;;5076696;28;20703;-74
2022/07/16 07:30:45;;;;;;;3.20;0.50;;;18.30;99.90;;;;;;5083489;28;20072;-69
2022/07/16 07:33:11;;;;;;;4.85;0.52;;;18.20;99.90;;;;;;5097612;28;20040;-66
2022/07/16 07:35:36;;;;;;;2.20;0.40;;;18.30;99.90;;;;;;5098192;28;20040;-68
2022/07/16 07:38:02;;;;;;;5.82;0.50;;;18.30;99.90;;;;;;5099622;28;20063;-68
2022/07/16 07:40:28;;;;;;;4.82;0.60;;;18.00;99.90;;;;;;5099326;28;20040;-67
2022/07/16 07:42:59;;;;;;;1.75;0.50;;;18.20;99.90;;;;;;5099569;28;20076;-68
2022/07/16 07:45:26;;;;;;;5.22;0.40;;;18.20;99.90;;;;;;5099319;28;20120;-71
2022/07/16 07:47:52;;;;;;;5.70;0.77;;;18.50;99.90;;;;;;5099328;28;20063;-69
2022/07/16 07:50:17;;;;;;;5.15;0.50;;;18.60;99.90;;;;;;5099125;28;20039;-69
2022/07/16 07:52:43;;;;;;;5.05;0.60;;;18.50;99.90;;;;;;5101550;28;20036;-68
2022/07/16 07:55:09;;;;;;;14.70;1.80;;;18.50;99.90;;;;;;5099370;28;20032;-68
2022/07/16 07:57:35;;;;;;;3.30;0.70;;;18.60;99.90;;;;;;5098100;28;20075;-68
2022/07/16 08:00:01;;;;;;;4.82;0.57;;;19.00;99.90;;;;;;5099381;28;20054;-68
2022/07/16 08:02:26;;;;;;;4.65;0.52;;;19.20;99.90;;;;;;5099235;28;20068;-68
2022/07/16 08:04:52;;;;;;;6.60;0.98;;;19.10;99.90;;;;;;5099346;28;20096;-68
2022/07/16 08:07:18;;;;;;;4.15;0.55;;;19.20;99.90;;;;;;5099205;28;20051;-68
2022/07/16 08:09:44;;;;;;;8.05;0.90;;;19.00;99.90;;;;;;5099010;28;20036;-68
2022/07/16 08:12:10;;;;;;;3.47;0.43;;;18.80;99.90;;;;;;5098929;28;20048;-68
2022/07/16 08:14:36;;;;;;;5.93;0.68;;;18.60;99.90;;;;;;5098850;28;20036;-69
2022/07/16 08:17:02;;;;;;;6.63;1.20;;;18.70;99.90;;;;;;5098829;28;20050;-68
2022/07/16 08:19:28;;;;;;;5.18;0.75;;;18.90;99.90;;;;;;5099024;28;20068;-68
2022/07/16 08:21:54;;;;;;;6.05;0.60;;;19.10;99.90;;;;;;5098851;28;20141;-68
2022/07/16 08:27:07;;;;;;;5.30;0.70;;;19.00;99.90;;;;;;5098130;28;20048;-72
2022/07/16 08:29:32;;;;;;;7.95;1.00;;;19.20;99.90;;;;;;5098100;28;20052;-68
2022/07/16 08:31:58;;;;;;;5.30;0.73;;;19.10;99.90;;;;;;5098891;28;20040;-68
2022/07/16 08:34:24;;;;;;;6.68;0.60;;;19.10;99.90;;;;;;5098534;28;20043;-69
2022/07/16 08:36:51;;;;;;;2.55;0.60;;;19.10;99.90;;;;;;5098773;28;20098;-69
2022/07/16 08:39:18;;;;;;;7.82;0.68;;;19.00;99.90;;;;;;5097466;28;20040;-68
2022/07/16 08:41:44;;;;;;;3.47;0.82;;;19.00;99.90;;;;;;5098247;28;20055;-69
2022/07/16 08:44:12;;;;;;;6.00;0.90;;;19.40;99.90;;;;;;5098345;28;20127;-69
2022/07/16 08:46:38;;;;;;;4.72;0.85;;;19.60;99.90;;;;;;5098366;28;20048;-68
2022/07/16 08:49:04;;;;;;;4.13;0.77;;;19.70;99.90;;;;;;5098212;28;20067;-68
2022/07/16 08:51:39;;;;;;;9.05;1.15;;;19.70;99.90;;;;;;5098193;28;20037;-68
2022/07/16 08:54:19;;;;;;;10.45;1.40;;;19.30;99.90;;;;;;5098344;28;20032;-68
2022/07/16 08:56:45;;;;;;;4.78;1.10;;;18.80;99.90;;;;;;5096267;28;20040;-71
2022/07/16 08:59:12;;;;;;;4.22;0.85;;;18.40;99.90;;;;;;5092909;28;20055;-71
2022/07/16 09:01:38;;;;;;;6.38;0.63;;;18.40;99.90;;;;;;5077963;28;20036;-68
2022/07/16 09:04:04;;;;;;;5.18;0.77;;;18.60;99.90;;;;;;5082745;28;20377;-68
2022/07/16 09:06:30;;;;;;;3.70;0.90;;;18.70;99.90;;;;;;5097822;28;20044;-68
2022/07/16 09:08:56;;;;;;;8.52;1.00;;;18.90;99.90;;;;;;5094423;28;20078;-69
2022/07/16 09:11:41;;;;;;;5.45;0.80;;;19.40;99.90;;;;;;5094575;28;20031;-69
2022/07/16 09:14:18;;;;;;;4.53;0.60;;;19.50;99.90;;;;;;5095358;28;20040;-70
2022/07/16 09:16:49;;;;;;;4.32;0.80;;;19.60;99.90;;;;;;5096405;28;20040;-69
2022/07/16 09:19:21;;;;;;;6.40;0.73;;;19.90;99.90;;;;;;5097391;28;20088;-70
2022/07/16 09:22:10;;;;;;;4.45;0.60;;;20.20;99.90;;;;;;5097671;28;20040;-70
2022/07/16 09:24:53;;;;;;;5.18;0.90;;;20.50;99.60;;;;;;5097871;28;20111;-69
2022/07/16 09:27:23;;;;;;;8.77;0.60;;;20.30;99.50;;;;;;5097179;28;20063;-70
2022/07/16 09:29:51;;;;;;;4.93;0.80;;;20.50;99.10;;;;;;5097175;28;20032;-70
2022/07/16 09:32:30;;;;;;;4.65;0.57;;;20.60;98.80;;;;;;5097655;28;20040;-69
2022/07/16 09:35:14;;;;;;;4.25;0.55;;;20.40;98.30;;;;;;5097550;28;20078;-69
2022/07/16 09:37:52;;;;;;;2.80;0.43;;;20.40;98.60;;;;;;5090479;28;20145;-70
2022/07/16 09:40:34;;;;;;;5.50;0.50;;;20.50;98.80;;;;;;5091215;28;20592;-70
2022/07/16 09:43:01;;;;;;;3.33;0.70;;;20.70;99.40;;;;;;5095402;28;20047;-70
2022/07/16 09:45:27;;;;;;;3.97;0.70;;;20.40;99.20;;;;;;5096110;28;20039;-70
2022/07/16 09:47:53;;;;;;;7.85;1.10;;;20.30;99.10;;;;;;5095884;28;20055;-69
2022/07/16 09:50:19;;;;;;;6.32;1.02;;;20.00;98.90;;;;;;5096122;28;20044;-69
2022/07/16 09:52:47;;;;;;;8.88;1.00;;;20.00;98.70;;;;;;5097002;28;20455;-69
2022/07/16 09:55:13;;;;;;;7.70;0.90;;;19.80;98.50;;;;;;5096842;28;20071;-69
2022/07/16 09:57:41;;;;;;;4.97;0.73;;;19.80;98.40;;;;;;5096834;28;20051;-69
2022/07/16 10:00:08;;;;;;;5.40;0.60;;;20.10;99.00;;;;;;5097047;28;20093;-70
2022/07/16 10:02:34;;;;;;;4.55;0.70;;;20.40;98.30;;;;;;5096164;28;20093;-69
2022/07/16 10:05:00;;;;;;;6.97;0.90;;;20.40;98.40;;;;;;5096812;28;20115;-70
2022/07/16 10:07:26;;;;;;;4.63;1.10;;;20.80;98.30;;;;;;5095966;28;20118;-70
2022/07/16 10:09:52;;;;;;;4.50;0.63;;;21.00;97.70;;;;;;5096780;28;20054;-69
2022/07/16 10:12:20;;;;;;;5.00;0.57;;;20.80;98.00;;;;;;5097120;28;20332;-70
2022/07/16 10:14:52;;;;;;;4.88;1.38;;;20.70;98.20;;;;;;5096940;28;20040;-70
2022/07/16 10:17:30;;;;;;;8.32;0.90;;;21.10;98.40;;;;;;5096660;28;20032;-70
2022/07/16 10:20:01;;;;;;;5.82;0.60;;;21.30;98.00;;;;;;5095630;28;20361;-70
2022/07/16 10:22:30;;;;;;;3.67;1.15;;;21.00;97.80;;;;;;5096812;28;20078;-69
2022/07/16 10:24:57;;;;;;;4.38;0.60;;;20.80;97.80;;;;;;5096795;28;20375;-69
2022/07/16 10:27:35;;;;;;;8.77;1.00;;;20.60;98.10;;;;;;5095992;28;20104;-70
2022/07/16 10:30:22;;;;;;;3.38;0.52;;;20.70;98.20;;;;;;5096424;28;20071;-70
2022/07/16 10:33:00;;;;;;;3.63;0.60;;;21.10;98.20;;;;;;5095825;28;20032;-70
2022/07/16 10:35:32;;;;;;;5.80;0.88;;;21.60;98.50;;;;;;5096466;28;20440;-70
2022/07/16 10:38:08;;;;;;;5.10;0.77;;;21.60;98.00;;;;;;5096607;28;20032;-68
2022/07/16 10:40:37;;;;;;;3.13;0.95;;;21.40;98.50;;;;;;5096827;28;20043;-70
2022/07/16 10:43:11;;;;;;;4.47;0.77;;;21.50;98.50;;;;;;5096562;28;20337;-69
2022/07/16 10:45:55;;;;;;;5.65;0.80;;;22.00;98.40;;;;;;5096692;28;20043;-69
2022/07/16 10:48:43;;;;;;;3.97;0.57;;;22.50;98.00;;;;;;5096509;28;20047;-69
2022/07/16 10:51:15;;;;;;;5.70;0.68;;;22.30;98.00;;;;;;5086282;28;20044;-70
2022/07/16 10:53:56;;;;;;;2.70;0.50;;;22.00;97.70;;;;;;5100448;28;20036;-69
2022/07/16 10:56:35;;;;;;;1.85;0.40;;;21.70;97.40;;;;;;5100389;28;20432;-69
2022/07/16 10:59:07;;;;;;;3.25;0.73;;;22.10;97.40;;;;;;5100331;28;20113;-71
2022/07/16 11:01:38;;;;;;;4.53;0.57;;;22.40;97.80;;;;;;5099437;28;20075;-69
2022/07/16 11:04:05;;;;;;;4.72;0.60;;;22.10;97.50;;;;;;5100642;28;20050;-70
2022/07/16 11:06:31;;;;;;;2.20;0.50;;;21.90;97.70;;;;;;5100224;28;20489;-68
2022/07/16 11:08:58;;;;;;;1.90;0.52;;;22.20;98.10;;;;;;5100122;28;20032;-69
2022/07/16 11:11:38;;;;;;;7.35;0.70;;;22.60;97.90;;;;;;5100087;28;20039;-70
2022/07/16 11:14:05;;;;;;;5.40;0.70;;;22.30;97.80;;;;;;5100197;28;20043;-69
2022/07/16 11:16:32;;;;;;;4.57;0.70;;;22.10;97.90;;;;;;5100350;28;20094;-69
2022/07/16 11:19:02;;;;;;;6.88;0.63;;;22.50;97.70;;;;;;5100092;28;20126;-69
2022/07/16 11:21:28;;;;;;;4.82;0.77;;;22.90;97.90;;;;;;5101916;28;20094;-68
2022/07/16 11:24:00;;;;;;;6.20;1.00;;;22.40;97.90;;;;;;5099864;28;20420;-70
2022/07/16 11:26:27;;;;;;;6.18;0.90;;;22.20;98.20;;;;;;5099853;28;20123;-70
2022/07/16 11:29:01;;;;;;;6.65;0.70;;;22.10;98.00;;;;;;5099109;28;20067;-66
2022/07/16 11:31:33;;;;;;;5.30;0.75;;;22.00;98.00;;;;;;5100057;28;20036;-68
2022/07/16 11:34:06;;;;;;;3.90;0.80;;;22.20;98.30;;;;;;5099877;28;20036;-84
2022/07/16 11:36:36;;;;;;;4.07;0.73;;;22.50;98.70;;;;;;5081925;28;20433;-69
2022/07/16 11:39:03;;;;;;;5.82;0.70;;;22.10;98.00;;;;;;5099602;28;20075;-69
2022/07/16 11:41:33;;;;;;;5.93;0.88;;;21.90;98.10;;;;;;5099533;28;20371;-69
2022/07/16 11:44:19;;;;;;;6.43;0.70;;;22.10;98.50;;;;;;5099752;28;20039;-69
2022/07/16 11:46:46;;;;;;;4.80;0.90;;;22.80;98.60;;;;;;5099891;28;20040;-69
2022/07/16 11:49:21;;;;;;;4.22;0.73;;;23.40;98.00;;;;;;5099268;28;20474;-68
2022/07/16 11:51:46;;;;;;;5.03;0.80;;;23.80;97.60;;;;;;5099731;28;20119;-83
2022/07/16 11:54:12;;;;;;;6.35;0.90;;;23.00;97.20;;;;;;5098183;28;20175;-70
2022/07/16 11:56:40;;;;;;;4.60;0.90;;;22.00;97.70;;;;;;5099646;28;20036;-68
2022/07/16 11:59:26;;;;;;;6.72;1.10;;;22.00;97.60;;;;;;5098868;28;20146;-68
2022/07/16 12:02:00;;;;;;;5.18;1.00;;;22.40;97.80;;;;;;5099290;28;20433;-69
2022/07/16 12:04:43;;;;;;;6.03;0.77;;;22.40;97.60;;;;;;5098793;28;20050;-68
2022/07/16 12:07:12;;;;;;;5.63;0.63;;;22.30;97.90;;;;;;5099184;28;20040;-68
2022/07/16 12:09:41;;;;;;;9.52;1.17;;;22.40;97.20;;;;;;5099277;28;20040;-68
2022/07/16 12:12:44;;;;;;;5.35;0.88;;;22.30;97.70;;;;;;5099025;28;20051;-68
2022/07/16 12:15:13;;;;;;;4.95;0.70;;;22.50;98.00;;;;;;5098841;28;20032;-69
2022/07/16 12:17:41;;;;;;;3.83;0.98;;;23.00;97.50;;;;;;5097918;28;20073;-69
2022/07/16 12:20:21;;;;;;;6.97;1.33;;;23.40;97.20;;;;;;5098929;28;20075;-68
2022/07/16 12:23:00;;;;;;;5.15;0.82;;;23.40;97.30;;;;;;5098888;28;20043;-68
2022/07/16 12:25:33;;;;;;;8.15;0.90;;;23.60;97.30;;;;;;5094675;28;20048;-69
2022/07/16 12:28:11;;;;;;;7.90;0.60;;;23.90;97.30;;;;;;5084515;28;20060;-69
2022/07/16 12:30:41;;;;;;;5.43;0.68;;;23.90;97.20;;;;;;5090323;28;21034;-69
2022/07/16 12:33:15;;;;;;;4.15;0.65;;;23.80;97.00;;;;;;5084320;28;20040;-69
2022/07/16 12:35:48;;;;;;;3.45;0.80;;;24.00;97.00;;;;;;5078814;28;20337;-71
2022/07/16 12:38:37;;;;;;;5.07;0.90;;;24.60;97.40;;;;;;5096913;28;20119;-69
2022/07/16 12:41:04;;;;;;;4.93;0.60;;;24.60;97.40;;;;;;5098766;28;20047;-68
2022/07/16 12:43:30;;;;;;;4.18;0.73;;;25.40;97.20;;;;;;5098580;28;20101;-68
2022/07/16 12:45:56;;;;;;;5.43;0.73;;;24.80;96.80;;;;;;5098314;28;20417;-69
2022/07/16 12:48:21;;;;;;;5.05;0.93;;;24.10;97.10;;;;;;5098543;28;20040;-69
2022/07/16 12:50:47;;;;;;;5.15;1.00;;;24.00;97.30;;;;;;5098215;28;20043;-69
2022/07/16 12:53:13;;;;;;;2.70;0.40;;;23.90;97.00;;;;;;5098442;28;20332;-69
2022/07/16 13:01:07;;;;;;;3.95;0.60;;;24.00;97.00;;;;;;5098288;28;20059;-69
2022/07/16 13:03:33;;;;;;;5.63;0.77;;;24.00;96.90;;;;;;5098030;28;20417;-68